sensor_id;sensor_type;location;lat;lon;timestamp;P1;durP1;ratioP1;P2;durP2;ratioP2
22849;SDS011;11591;44.792;10.358;2022-09-23T04:55:02;10.45;;;2.97;;
22849;SDS011;11591;44.792;10.358;2022-09-23T04:57:28;6.00;;;3.10;;
22849;SDS011;11591;44.792;10.358;2022-09-23T04:59:54;5.40;;;3.10;;
22849;SDS011;11591;44.792;10.358;2022-09-23T05:02:23;5.90;;;2.40;;
22849;SDS011;11591;44.792;10.358;2022-09-23T05:04:49;4.20;;;2.65;;
22849;SDS011;11591;44.792;10.358;2022-09-23T05:07:15;5.57;;;2.92;;
22849;SDS011;11591;44.792;10.358;2022-09-23T05:09:43;4.20;;;2.58;;
22849;SDS011;11591;44.792;10.358;2022-09-23T05:12:09;4.95;;;2.97;;
22849;SDS011;11591;44.792;10.358;2022-09-23T05:14:35;5.38;;;2.60;;
22849;SDS011;11591;44.792;10.358;2022-09-23T05:17:03;4.53;;;2.50;;
22849;SDS011;11591;44.792;10.358;2022-09-23T05:19:29;7.43;;;2.80;;
22849;SDS011;11591;44.792;10.358;2022-09-23T05:21:55;5.85;;;2.88;;
22849;SDS011;11591;44.792;10.358;2022-09-23T05:24:21;4.38;;;2.47;;
22849;SDS011;11591;44.792;10.358;2022-09-23T05:26:49;8.43;;;2.70;;
22849;SDS011;11591;44.792;10.358;2022-09-23T05:29:15;4.10;;;2.38;;
22849;SDS011;11591;44.792;10.358;2022-09-23T05:31:42;4.82;;;2.95;;
22849;SDS011;11591;44.792;10.358;2022-09-23T05:34:07;5.03;;;2.90;;
22849;SDS011;11591;44.792;10.358;2022-09-23T05:36:34;7.63;;;2.78;;
22849;SDS011;11591;44.792;10.358;2022-09-23T05:39:01;5.82;;;3.10;;
22849;SDS011;11591;44.792;10.358;2022-09-23T05:41:27;9.77;;;2.75;;
22849;SDS011;11591;44.792;10.358;2022-09-23T05:43:54;9.50;;;2.50;;
22849;SDS011;11591;44.792;10.358;2022-09-23T05:48:48;6.18;;;3.08;;
22849;SDS011;11591;44.792;10.358;2022-09-23T05:51:15;10.57;;;3.00;;
22849;SDS011;11591;44.792;10.358;2022-09-23T05:53:42;12.52;;;4.03;;
22849;SDS011;11591;44.792;10.358;2022-09-23T05:56:15;21.52;;;10.18;;
22849;SDS011;11591;44.792;10.358;2022-09-23T05:58:43;11.52;;;5.90;;
22849;SDS011;11591;44.792;10.358;2022-09-23T06:01:10;16.77;;;9.23;;
22849;SDS011;11591;44.792;10.358;2022-09-23T06:03:37;12.40;;;4.32;;
22849;SDS011;11591;44.792;10.358;2022-09-23T06:06:04;12.50;;;5.82;;
22849;SDS011;11591;44.792;10.358;2022-09-23T06:08:30;8.68;;;4.80;;
22849;SDS011;11591;44.792;10.358;2022-09-23T06:11:01;12.60;;;5.18;;
22849;SDS011;11591;44.792;10.358;2022-09-23T06:13:31;7.70;;;3.90;;
22849;SDS011;11591;44.792;10.358;2022-09-23T06:16:04;7.85;;;3.65;;
22849;SDS011;11591;44.792;10.358;2022-09-23T06:18:32;9.13;;;4.10;;
22849;SDS011;11591;44.792;10.358;2022-09-23T06:20:59;8.35;;;3.60;;
22849;SDS011;11591;44.792;10.358;2022-09-23T06:23:29;11.63;;;3.33;;
22849;SDS011;11591;44.792;10.358;2022-09-23T06:26:02;5.55;;;3.22;;
22849;SDS011;11591;44.792;10.358;2022-09-23T06:28:29;9.10;;;3.35;;
22849;SDS011;11591;44.792;10.358;2022-09-23T06:30:59;5.88;;;2.92;;
22849;SDS011;11591;44.792;10.358;2022-09-23T06:33:30;6.95;;;3.05;;
22849;SDS011;11591;44.792;10.358;2022-09-23T06:35:56;7.03;;;2.95;;
22849;SDS011;11591;44.792;10.358;2022-09-23T06:38:23;11.57;;;5.47;;
22849;SDS011;11591;44.792;10.358;2022-09-23T06:40:50;11.48;;;3.80;;
22849;SDS011;11591;44.792;10.358;2022-09-23T06:43:18;40.38;;;19.58;;
22849;SDS011;11591;44.792;10.358;2022-09-23T06:45:45;11.85;;;4.15;;
22849;SDS011;11591;44.792;10.358;2022-09-23T06:48:11;9.95;;;4.50;;
22849;SDS011;11591;44.792;10.358;2022-09-23T06:50:37;16.00;;;6.15;;
22849;SDS011;11591;44.792;10.358;2022-09-23T06:53:03;10.23;;;4.10;;
22849;SDS011;11591;44.792;10.358;2022-09-23T06:55:29;10.70;;;3.47;;
22849;SDS011;11591;44.792;10.358;2022-09-23T06:57:56;8.80;;;3.28;;
22849;SDS011;11591;44.792;10.358;2022-09-23T07:00:23;4.38;;;3.03;;
22849;SDS011;11591;44.792;10.358;2022-09-23T07:02:49;10.27;;;3.22;;
22849;SDS011;11591;44.792;10.358;2022-09-23T07:05:15;4.45;;;2.90;;
22849;SDS011;11591;44.792;10.358;2022-09-23T07:07:41;5.72;;;2.67;;
22849;SDS011;11591;44.792;10.358;2022-09-23T07:10:08;6.07;;;2.92;;
22849;SDS011;11591;44.792;10.358;2022-09-23T07:12:35;6.40;;;2.90;;
22849;SDS011;11591;44.792;10.358;2022-09-23T07:15:01;7.43;;;3.50;;
22849;SDS011;11591;44.792;10.358;2022-09-23T07:17:27;12.75;;;3.55;;
22849;SDS011;11591;44.792;10.358;2022-09-23T07:19:54;7.78;;;4.10;;
22849;SDS011;11591;44.792;10.358;2022-09-23T07:22:21;9.65;;;3.88;;
22849;SDS011;11591;44.792;10.358;2022-09-23T07:24:49;6.72;;;3.40;;
22849;SDS011;11591;44.792;10.358;2022-09-23T07:27:15;9.63;;;3.75;;
22849;SDS011;11591;44.792;10.358;2022-09-23T07:29:47;10.88;;;4.10;;
22849;SDS011;11591;44.792;10.358;2022-09-23T07:32:13;9.98;;;4.15;;
22849;SDS011;11591;44.792;10.358;2022-09-23T07:34:39;5.82;;;3.58;;
22849;SDS011;11591;44.792;10.358;2022-09-23T07:37:05;10.05;;;3.65;;
22849;SDS011;11591;44.792;10.358;2022-09-23T07:39:31;9.65;;;3.47;;
22849;SDS011;11591;44.792;10.358;2022-09-23T07:41:56;9.52;;;3.80;;
22849;SDS011;11591;44.792;10.358;2022-09-23T07:44:23;10.77;;;3.60;;
22849;SDS011;11591;44.792;10.358;2022-09-23T07:46:49;7.65;;;3.55;;
22849;SDS011;11591;44.792;10.358;2022-09-23T07:49:15;16.08;;;3.30;;
22849;SDS011;11591;44.792;10.358;2022-09-23T07:51:41;5.55;;;2.70;;
22849;SDS011;11591;44.792;10.358;2022-09-23T07:54:11;5.68;;;2.83;;
22849;SDS011;11591;44.792;10.358;2022-09-23T07:56:38;7.95;;;2.40;;
22849;SDS011;11591;44.792;10.358;2022-09-23T07:59:06;7.43;;;2.72;;
22849;SDS011;11591;44.792;10.358;2022-09-23T08:01:35;7.60;;;2.58;;
22849;SDS011;11591;44.792;10.358;2022-09-23T08:04:07;3.63;;;2.63;;
22849;SDS011;11591;44.792;10.358;2022-09-23T08:06:44;5.10;;;2.53;;
22849;SDS011;11591;44.792;10.358;2022-09-23T08:09:12;6.93;;;2.70;;
22849;SDS011;11591;44.792;10.358;2022-09-23T08:11:41;4.75;;;2.35;;
22849;SDS011;11591;44.792;10.358;2022-09-23T08:14:07;9.40;;;2.42;;
22849;SDS011;11591;44.792;10.358;2022-09-23T08:16:37;3.42;;;2.10;;
22849;SDS011;11591;44.792;10.358;2022-09-23T08:19:04;5.10;;;2.53;;
22849;SDS011;11591;44.792;10.358;2022-09-23T08:21:30;10.38;;;3.03;;
22849;SDS011;11591;44.792;10.358;2022-09-23T08:23:56;10.20;;;4.63;;
22849;SDS011;11591;44.792;10.358;2022-09-23T08:26:23;13.25;;;7.38;;
22849;SDS011;11591;44.792;10.358;2022-09-23T08:28:52;12.70;;;7.40;;
22849;SDS011;11591;44.792;10.358;2022-09-23T08:31:24;14.70;;;6.90;;
22849;SDS011;11591;44.792;10.358;2022-09-23T08:33:53;11.65;;;5.22;;
22849;SDS011;11591;44.792;10.358;2022-09-23T08:36:20;7.40;;;4.65;;
22849;SDS011;11591;44.792;10.358;2022-09-23T08:38:47;8.25;;;3.00;;
22849;SDS011;11591;44.792;10.358;2022-09-23T08:43:48;4.40;;;3.28;;
22849;SDS011;11591;44.792;10.358;2022-09-23T08:46:22;13.43;;;6.10;;
22849;SDS011;11591;44.792;10.358;2022-09-23T08:48:52;28.08;;;13.68;;
22849;SDS011;11591;44.792;10.358;2022-09-23T08:51:24;22.55;;;13.90;;
22849;SDS011;11591;44.792;10.358;2022-09-23T08:53:56;13.10;;;5.05;;
22849;SDS011;11591;44.792;10.358;2022-09-23T08:56:22;9.75;;;5.03;;
22849;SDS011;11591;44.792;10.358;2022-09-23T09:04:23;6.38;;;2.80;;
22849;SDS011;11591;44.792;10.358;2022-09-23T09:07:09;3.30;;;2.50;;
22849;SDS011;11591;44.792;10.358;2022-09-23T09:10:25;5.95;;;2.45;;
22849;SDS011;11591;44.792;10.358;2022-09-23T09:13:09;5.72;;;3.10;;
22849;SDS011;11591;44.792;10.358;2022-09-23T09:19:16;4.53;;;2.80;;
22849;SDS011;11591;44.792;10.358;2022-09-23T09:21:46;4.25;;;2.92;;
22849;SDS011;11591;44.792;10.358;2022-09-23T09:24:17;8.15;;;2.75;;
22849;SDS011;11591;44.792;10.358;2022-09-23T09:26:51;4.05;;;2.83;;
22849;SDS011;11591;44.792;10.358;2022-09-23T09:29:19;8.30;;;3.15;;
22849;SDS011;11591;44.792;10.358;2022-09-23T09:31:51;5.60;;;2.97;;
22849;SDS011;11591;44.792;10.358;2022-09-23T09:39:42;10.00;;;3.13;;
22849;SDS011;11591;44.792;10.358;2022-09-23T09:42:08;10.70;;;3.47;;
22849;SDS011;11591;44.792;10.358;2022-09-23T09:44:45;24.77;;;12.95;;
22849;SDS011;11591;44.792;10.358;2022-09-23T09:47:23;12.93;;;6.90;;
22849;SDS011;11591;44.792;10.358;2022-09-23T09:52:26;16.55;;;9.18;;
22849;SDS011;11591;44.792;10.358;2022-09-23T09:57:38;6.35;;;4.60;;
22849;SDS011;11591;44.792;10.358;2022-09-23T10:00:33;10.55;;;3.53;;
22849;SDS011;11591;44.792;10.358;2022-09-23T10:08:33;3.40;;;2.90;;
22849;SDS011;11591;44.792;10.358;2022-09-23T10:13:31;5.47;;;2.42;;
22849;SDS011;11591;44.792;10.358;2022-09-23T10:16:00;3.03;;;2.03;;
22849;SDS011;11591;44.792;10.358;2022-09-23T10:23:33;4.00;;;2.63;;
22849;SDS011;11591;44.792;10.358;2022-09-23T10:26:06;5.80;;;2.60;;
22849;SDS011;11591;44.792;10.358;2022-09-23T10:31:23;3.20;;;2.30;;
22849;SDS011;11591;44.792;10.358;2022-09-23T10:33:55;6.30;;;2.30;;
22849;SDS011;11591;44.792;10.358;2022-09-23T10:36:25;3.03;;;2.20;;
22849;SDS011;11591;44.792;10.358;2022-09-23T10:38:56;6.22;;;2.45;;
22849;SDS011;11591;44.792;10.358;2022-09-23T10:42:01;3.75;;;2.10;;
22849;SDS011;11591;44.792;10.358;2022-09-23T10:45:00;5.45;;;1.67;;
22849;SDS011;11591;44.792;10.358;2022-09-23T10:50:54;4.65;;;2.95;;
22849;SDS011;11591;44.792;10.358;2022-09-23T10:56:35;19.85;;;9.60;;
22849;SDS011;11591;44.792;10.358;2022-09-23T10:59:11;9.80;;;2.22;;
22849;SDS011;11591;44.792;10.358;2022-09-23T11:19:18;10.48;;;5.82;;
22849;SDS011;11591;44.792;10.358;2022-09-23T11:27:23;4.38;;;1.88;;
22849;SDS011;11591;44.792;10.358;2022-09-23T11:30:34;2.63;;;1.30;;
22849;SDS011;11591;44.792;10.358;2022-09-23T11:33:22;2.35;;;1.58;;
22849;SDS011;11591;44.792;10.358;2022-09-23T11:36:07;1.77;;;1.30;;
22849;SDS011;11591;44.792;10.358;2022-09-23T11:38:39;1.98;;;1.05;;
22849;SDS011;11591;44.792;10.358;2022-09-23T11:41:14;2.67;;;1.63;;
22849;SDS011;11591;44.792;10.358;2022-09-23T11:43:45;2.22;;;1.52;;
22849;SDS011;11591;44.792;10.358;2022-09-23T11:46:36;1.60;;;1.00;;
22849;SDS011;11591;44.792;10.358;2022-09-23T11:49:54;4.90;;;1.30;;
22849;SDS011;11591;44.792;10.358;2022-09-23T11:52:02;2.58;;;1.90;;
22849;SDS011;11591;44.792;10.358;2022-09-23T11:54:33;2.38;;;1.60;;
22849;SDS011;11591;44.792;10.358;2022-09-23T11:57:24;2.05;;;1.65;;
22849;SDS011;11591;44.792;10.358;2022-09-23T12:00:11;2.88;;;2.00;;
22849;SDS011;11591;44.792;10.358;2022-09-23T12:05:33;2.67;;;1.75;;
22849;SDS011;11591;44.792;10.358;2022-09-23T12:16:55;3.05;;;1.70;;
22849;SDS011;11591;44.792;10.358;2022-09-23T12:19:37;8.98;;;2.05;;
22849;SDS011;11591;44.792;10.358;2022-09-23T12:27:53;2.30;;;1.50;;
22849;SDS011;11591;44.792;10.358;2022-09-23T12:30:27;2.45;;;1.60;;
22849;SDS011;11591;44.792;10.358;2022-09-23T12:36:04;5.22;;;1.50;;
22849;SDS011;11591;44.792;10.358;2022-09-23T12:41:16;3.53;;;1.20;;
22849;SDS011;11591;44.792;10.358;2022-09-23T12:44:14;7.05;;;1.73;;
22849;SDS011;11591;44.792;10.358;2022-09-23T12:50:01;3.35;;;1.95;;
22849;SDS011;11591;44.792;10.358;2022-09-23T12:52:41;3.28;;;2.47;;
22849;SDS011;11591;44.792;10.358;2022-09-23T12:57:49;3.05;;;2.00;;
22849;SDS011;11591;44.792;10.358;2022-09-23T13:00:24;3.17;;;2.00;;
22849;SDS011;11591;44.792;10.358;2022-09-23T13:02:55;3.47;;;1.90;;
22849;SDS011;11591;44.792;10.358;2022-09-23T13:05:46;2.55;;;1.75;;
22849;SDS011;11591;44.792;10.358;2022-09-23T13:08:37;2.53;;;1.77;;
22849;SDS011;11591;44.792;10.358;2022-09-23T13:11:07;2.47;;;1.90;;
22849;SDS011;11591;44.792;10.358;2022-09-23T13:13:48;2.20;;;1.80;;
22849;SDS011;11591;44.792;10.358;2022-09-23T13:24:17;4.15;;;2.00;;
22849;SDS011;11591;44.792;10.358;2022-09-23T13:26:55;5.43;;;3.20;;
22849;SDS011;11591;44.792;10.358;2022-09-23T13:29:39;4.00;;;2.40;;
22849;SDS011;11591;44.792;10.358;2022-09-23T13:32:12;5.47;;;4.90;;
22849;SDS011;11591;44.792;10.358;2022-09-23T13:34:42;6.07;;;2.78;;
22849;SDS011;11591;44.792;10.358;2022-09-23T13:37:26;2.47;;;2.03;;
22849;SDS011;11591;44.792;10.358;2022-09-23T13:40:29;1.63;;;1.40;;
22849;SDS011;11591;44.792;10.358;2022-09-23T13:42:59;3.78;;;2.40;;
22849;SDS011;11591;44.792;10.358;2022-09-23T13:45:30;13.73;;;8.95;;
22849;SDS011;11591;44.792;10.358;2022-09-23T13:48:01;7.75;;;3.08;;
22849;SDS011;11591;44.792;10.358;2022-09-23T13:50:30;6.18;;;4.18;;
22849;SDS011;11591;44.792;10.358;2022-09-23T13:52:57;2.97;;;2.08;;
22849;SDS011;11591;44.792;10.358;2022-09-23T13:55:27;2.38;;;1.95;;
22849;SDS011;11591;44.792;10.358;2022-09-23T13:58:02;6.10;;;1.55;;
22849;SDS011;11591;44.792;10.358;2022-09-23T14:00:41;2.05;;;1.40;;
22849;SDS011;11591;44.792;10.358;2022-09-23T14:03:24;1.60;;;1.15;;
22849;SDS011;11591;44.792;10.358;2022-09-23T14:05:55;3.30;;;1.20;;
22849;SDS011;11591;44.792;10.358;2022-09-23T14:08:24;1.85;;;1.27;;
22849;SDS011;11591;44.792;10.358;2022-09-23T14:10:50;4.07;;;1.10;;
22849;SDS011;11591;44.792;10.358;2022-09-23T14:13:27;1.73;;;1.33;;
22849;SDS011;11591;44.792;10.358;2022-09-23T14:15:59;1.42;;;1.23;;
22849;SDS011;11591;44.792;10.358;2022-09-23T14:18:40;6.45;;;1.30;;
22849;SDS011;11591;44.792;10.358;2022-09-23T14:23:54;1.85;;;1.50;;
22849;SDS011;11591;44.792;10.358;2022-09-23T14:26:21;1.75;;;1.30;;
22849;SDS011;11591;44.792;10.358;2022-09-23T14:28:48;2.15;;;1.50;;
22849;SDS011;11591;44.792;10.358;2022-09-23T14:31:18;5.10;;;1.38;;
22849;SDS011;11591;44.792;10.358;2022-09-23T14:33:43;3.55;;;1.63;;
22849;SDS011;11591;44.792;10.358;2022-09-23T14:36:12;2.05;;;1.48;;
22849;SDS011;11591;44.792;10.358;2022-09-23T14:39:02;4.28;;;1.58;;
22849;SDS011;11591;44.792;10.358;2022-09-23T14:41:33;3.65;;;1.27;;
22849;SDS011;11591;44.792;10.358;2022-09-23T14:44:04;4.97;;;1.70;;
22849;SDS011;11591;44.792;10.358;2022-09-23T14:46:34;5.07;;;1.90;;
22849;SDS011;11591;44.792;10.358;2022-09-23T14:51:40;3.35;;;1.23;;
22849;SDS011;11591;44.792;10.358;2022-09-23T14:54:20;3.30;;;1.40;;
22849;SDS011;11591;44.792;10.358;2022-09-23T14:57:01;6.93;;;1.48;;
22849;SDS011;11591;44.792;10.358;2022-09-23T14:59:45;2.22;;;1.67;;
22849;SDS011;11591;44.792;10.358;2022-09-23T15:02:36;2.55;;;1.50;;
22849;SDS011;11591;44.792;10.358;2022-09-23T15:05:07;3.88;;;1.63;;
22849;SDS011;11591;44.792;10.358;2022-09-23T15:07:38;1.65;;;1.38;;
22849;SDS011;11591;44.792;10.358;2022-09-23T15:10:25;6.53;;;1.70;;
22849;SDS011;11591;44.792;10.358;2022-09-23T15:13:00;1.50;;;1.27;;
22849;SDS011;11591;44.792;10.358;2022-09-23T15:15:38;2.63;;;1.60;;
22849;SDS011;11591;44.792;10.358;2022-09-23T15:18:27;2.28;;;1.38;;
22849;SDS011;11591;44.792;10.358;2022-09-23T15:20:54;3.13;;;1.77;;
22849;SDS011;11591;44.792;10.358;2022-09-23T15:23:43;2.38;;;1.85;;
22849;SDS011;11591;44.792;10.358;2022-09-23T15:26:17;3.75;;;2.08;;
22849;SDS011;11591;44.792;10.358;2022-09-23T15:28:48;2.70;;;1.75;;
22849;SDS011;11591;44.792;10.358;2022-09-23T15:31:18;3.05;;;1.42;;
22849;SDS011;11591;44.792;10.358;2022-09-23T15:33:46;3.50;;;1.77;;
22849;SDS011;11591;44.792;10.358;2022-09-23T15:36:16;2.83;;;1.60;;
22849;SDS011;11591;44.792;10.358;2022-09-23T15:38:59;2.42;;;1.60;;
22849;SDS011;11591;44.792;10.358;2022-09-23T15:41:27;2.65;;;2.00;;
22849;SDS011;11591;44.792;10.358;2022-09-23T15:43:53;5.40;;;1.88;;
22849;SDS011;11591;44.792;10.358;2022-09-23T15:46:24;3.85;;;1.92;;
22849;SDS011;11591;44.792;10.358;2022-09-23T15:48:55;4.30;;;3.00;;
22849;SDS011;11591;44.792;10.358;2022-09-23T15:51:26;2.85;;;2.42;;
22849;SDS011;11591;44.792;10.358;2022-09-23T15:53:52;4.00;;;1.92;;
22849;SDS011;11591;44.792;10.358;2022-09-23T15:56:24;4.25;;;2.20;;
22849;SDS011;11591;44.792;10.358;2022-09-23T15:58:53;4.38;;;2.92;;
22849;SDS011;11591;44.792;10.358;2022-09-23T16:01:29;4.68;;;2.65;;
22849;SDS011;11591;44.792;10.358;2022-09-23T16:03:57;5.45;;;2.30;;
22849;SDS011;11591;44.792;10.358;2022-09-23T16:06:26;2.78;;;2.47;;
22849;SDS011;11591;44.792;10.358;2022-09-23T16:08:52;6.80;;;3.20;;
22849;SDS011;11591;44.792;10.358;2022-09-23T16:11:19;6.32;;;3.22;;
22849;SDS011;11591;44.792;10.358;2022-09-23T16:13:51;5.95;;;2.78;;
22849;SDS011;11591;44.792;10.358;2022-09-23T16:16:17;4.95;;;3.10;;
22849;SDS011;11591;44.792;10.358;2022-09-23T16:18:46;8.35;;;2.85;;
22849;SDS011;11591;44.792;10.358;2022-09-23T16:21:15;6.93;;;3.22;;
22849;SDS011;11591;44.792;10.358;2022-09-23T16:23:43;7.57;;;5.15;;
22849;SDS011;11591;44.792;10.358;2022-09-23T16:26:21;11.45;;;5.03;;
22849;SDS011;11591;44.792;10.358;2022-09-23T16:28:47;8.27;;;3.78;;
22849;SDS011;11591;44.792;10.358;2022-09-23T16:31:15;4.72;;;3.30;;
22849;SDS011;11591;44.792;10.358;2022-09-23T16:33:44;6.18;;;3.90;;
22849;SDS011;11591;44.792;10.358;2022-09-23T16:39:01;14.60;;;4.70;;
22849;SDS011;11591;44.792;10.358;2022-09-23T16:41:29;7.78;;;4.55;;
22849;SDS011;11591;44.792;10.358;2022-09-23T16:43:55;20.05;;;8.10;;
22849;SDS011;11591;44.792;10.358;2022-09-23T16:46:22;11.48;;;6.95;;
22849;SDS011;11591;44.792;10.358;2022-09-23T16:48:48;12.02;;;6.10;;
22849;SDS011;11591;44.792;10.358;2022-09-23T16:53:43;8.32;;;4.72;;
22849;SDS011;11591;44.792;10.358;2022-09-23T16:56:09;11.40;;;5.40;;
22849;SDS011;11591;44.792;10.358;2022-09-23T16:58:37;13.23;;;5.03;;
22849;SDS011;11591;44.792;10.358;2022-09-23T17:01:04;9.10;;;4.53;;
22849;SDS011;11591;44.792;10.358;2022-09-23T17:03:49;9.13;;;4.05;;
22849;SDS011;11591;44.792;10.358;2022-09-23T17:06:15;10.23;;;4.15;;
22849;SDS011;11591;44.792;10.358;2022-09-23T17:08:44;17.38;;;4.82;;
22849;SDS011;11591;44.792;10.358;2022-09-23T17:11:12;7.35;;;4.40;;
22849;SDS011;11591;44.792;10.358;2022-09-23T17:13:41;6.05;;;3.83;;
22849;SDS011;11591;44.792;10.358;2022-09-23T17:16:08;6.60;;;3.38;;
22849;SDS011;11591;44.792;10.358;2022-09-23T17:18:35;10.88;;;4.10;;
22849;SDS011;11591;44.792;10.358;2022-09-23T17:21:06;11.77;;;3.70;;
22849;SDS011;11591;44.792;10.358;2022-09-23T17:26:18;6.82;;;3.22;;
22849;SDS011;11591;44.792;10.358;2022-09-23T17:28:46;7.13;;;3.15;;
22849;SDS011;11591;44.792;10.358;2022-09-23T17:31:11;5.40;;;3.22;;
22849;SDS011;11591;44.792;10.358;2022-09-23T17:33:37;6.95;;;3.42;;
22849;SDS011;11591;44.792;10.358;2022-09-23T17:36:07;6.93;;;3.30;;
22849;SDS011;11591;44.792;10.358;2022-09-23T17:38:34;7.90;;;3.42;;
22849;SDS011;11591;44.792;10.358;2022-09-23T17:41:00;6.75;;;3.85;;
22849;SDS011;11591;44.792;10.358;2022-09-23T17:46:48;22.88;;;11.07;;
22849;SDS011;11591;44.792;10.358;2022-09-23T17:49:15;17.85;;;9.50;;
22849;SDS011;11591;44.792;10.358;2022-09-23T17:51:42;21.30;;;12.35;;
22849;SDS011;11591;44.792;10.358;2022-09-23T17:54:08;44.88;;;25.33;;
22849;SDS011;11591;44.792;10.358;2022-09-23T17:56:35;28.38;;;15.55;;
22849;SDS011;11591;44.792;10.358;2022-09-23T17:59:00;20.83;;;8.70;;
22849;SDS011;11591;44.792;10.358;2022-09-23T18:01:27;17.48;;;6.80;;
22849;SDS011;11591;44.792;10.358;2022-09-23T18:03:57;10.70;;;5.80;;
22849;SDS011;11591;44.792;10.358;2022-09-23T18:06:25;16.52;;;4.90;;
22849;SDS011;11591;44.792;10.358;2022-09-23T18:08:53;10.20;;;4.78;;
22849;SDS011;11591;44.792;10.358;2022-09-23T18:11:23;6.25;;;3.83;;
22849;SDS011;11591;44.792;10.358;2022-09-23T18:13:51;8.30;;;3.50;;
22849;SDS011;11591;44.792;10.358;2022-09-23T18:16:19;9.95;;;3.38;;
22849;SDS011;11591;44.792;10.358;2022-09-23T18:18:50;7.22;;;3.25;;
22849;SDS011;11591;44.792;10.358;2022-09-23T18:21:21;8.52;;;3.65;;
22849;SDS011;11591;44.792;10.358;2022-09-23T18:23:48;9.90;;;3.20;;
22849;SDS011;11591;44.792;10.358;2022-09-23T18:26:19;6.65;;;2.67;;
22849;SDS011;11591;44.792;10.358;2022-09-23T18:28:47;9.00;;;2.83;;
22849;SDS011;11591;44.792;10.358;2022-09-23T18:31:14;16.23;;;5.22;;
22849;SDS011;11591;44.792;10.358;2022-09-23T18:33:41;11.88;;;5.65;;
22849;SDS011;11591;44.792;10.358;2022-09-23T18:36:07;17.02;;;5.05;;
22849;SDS011;11591;44.792;10.358;2022-09-23T18:38:34;11.70;;;4.22;;
22849;SDS011;11591;44.792;10.358;2022-09-23T18:41:00;9.68;;;3.60;;
22849;SDS011;11591;44.792;10.358;2022-09-23T18:43:28;11.40;;;4.82;;
22849;SDS011;11591;44.792;10.358;2022-09-23T18:46:03;6.38;;;3.30;;
22849;SDS011;11591;44.792;10.358;2022-09-23T18:48:32;7.57;;;3.22;;
22849;SDS011;11591;44.792;10.358;2022-09-23T18:51:17;5.78;;;3.10;;
22849;SDS011;11591;44.792;10.358;2022-09-23T18:53:45;11.43;;;3.70;;
22849;SDS011;11591;44.792;10.358;2022-09-23T18:56:22;7.82;;;4.60;;
22849;SDS011;11591;44.792;10.358;2022-09-23T18:58:51;14.02;;;4.35;;
22849;SDS011;11591;44.792;10.358;2022-09-23T19:01:20;12.48;;;3.80;;
22849;SDS011;11591;44.792;10.358;2022-09-23T19:03:47;12.85;;;4.45;;
22849;SDS011;11591;44.792;10.358;2022-09-23T19:06:17;10.68;;;4.18;;
22849;SDS011;11591;44.792;10.358;2022-09-23T19:08:44;10.05;;;3.78;;
22849;SDS011;11591;44.792;10.358;2022-09-23T19:11:13;8.85;;;3.97;;
22849;SDS011;11591;44.792;10.358;2022-09-23T19:13:39;21.00;;;7.53;;
22849;SDS011;11591;44.792;10.358;2022-09-23T19:16:13;26.52;;;9.50;;
22849;SDS011;11591;44.792;10.358;2022-09-23T19:18:41;41.78;;;14.02;;
22849;SDS011;11591;44.792;10.358;2022-09-23T19:21:11;30.52;;;13.05;;
22849;SDS011;11591;44.792;10.358;2022-09-23T19:23:39;34.28;;;13.50;;
22849;SDS011;11591;44.792;10.358;2022-09-23T19:26:11;27.52;;;11.45;;
22849;SDS011;11591;44.792;10.358;2022-09-23T19:28:38;25.90;;;10.60;;
22849;SDS011;11591;44.792;10.358;2022-09-23T19:31:12;23.98;;;9.20;;
22849;SDS011;11591;44.792;10.358;2022-09-23T19:33:41;25.48;;;6.95;;
22849;SDS011;11591;44.792;10.358;2022-09-23T19:36:09;12.88;;;6.63;;
22849;SDS011;11591;44.792;10.358;2022-09-23T19:38:36;17.73;;;6.68;;
22849;SDS011;11591;44.792;10.358;2022-09-23T19:41:03;13.93;;;6.60;;
22849;SDS011;11591;44.792;10.358;2022-09-23T19:43:35;19.77;;;6.70;;
22849;SDS011;11591;44.792;10.358;2022-09-23T19:46:03;13.75;;;7.10;;
22849;SDS011;11591;44.792;10.358;2022-09-23T19:48:30;12.32;;;6.45;;
22849;SDS011;11591;44.792;10.358;2022-09-23T19:50:58;13.43;;;6.78;;
22849;SDS011;11591;44.792;10.358;2022-09-23T19:53:30;12.75;;;7.10;;
22849;SDS011;11591;44.792;10.358;2022-09-23T19:55:56;13.90;;;6.28;;
22849;SDS011;11591;44.792;10.358;2022-09-23T19:58:22;17.65;;;6.40;;
22849;SDS011;11591;44.792;10.358;2022-09-23T20:00:49;15.95;;;6.43;;
22849;SDS011;11591;44.792;10.358;2022-09-23T20:03:15;17.30;;;6.68;;
22849;SDS011;11591;44.792;10.358;2022-09-23T20:05:52;14.27;;;6.57;;
22849;SDS011;11591;44.792;10.358;2022-09-23T20:08:20;14.75;;;6.35;;
22849;SDS011;11591;44.792;10.358;2022-09-23T20:10:47;16.40;;;7.38;;
22849;SDS011;11591;44.792;10.358;2022-09-23T20:13:14;13.75;;;7.15;;
22849;SDS011;11591;44.792;10.358;2022-09-23T20:15:46;16.23;;;6.45;;
22849;SDS011;11591;44.792;10.358;2022-09-23T20:18:14;13.40;;;7.40;;
22849;SDS011;11591;44.792;10.358;2022-09-23T20:20:41;13.10;;;6.72;;
22849;SDS011;11591;44.792;10.358;2022-09-23T20:23:06;11.13;;;6.00;;
22849;SDS011;11591;44.792;10.358;2022-09-23T20:25:33;13.48;;;6.55;;
22849;SDS011;11591;44.792;10.358;2022-09-23T20:28:18;11.93;;;5.95;;
22849;SDS011;11591;44.792;10.358;2022-09-23T20:30:45;11.98;;;5.53;;
22849;SDS011;11591;44.792;10.358;2022-09-23T20:33:13;11.50;;;5.40;;
22849;SDS011;11591;44.792;10.358;2022-09-23T20:35:39;11.40;;;6.10;;
22849;SDS011;11591;44.792;10.358;2022-09-23T20:38:08;12.85;;;5.57;;
22849;SDS011;11591;44.792;10.358;2022-09-23T20:40:34;12.73;;;6.05;;
22849;SDS011;11591;44.792;10.358;2022-09-23T20:43:03;8.70;;;5.53;;
22849;SDS011;11591;44.792;10.358;2022-09-23T20:45:29;10.90;;;6.07;;
22849;SDS011;11591;44.792;10.358;2022-09-23T20:47:56;20.55;;;11.52;;
22849;SDS011;11591;44.792;10.358;2022-09-23T20:50:25;20.48;;;12.10;;
22849;SDS011;11591;44.792;10.358;2022-09-23T20:52:51;17.05;;;10.25;;
22849;SDS011;11591;44.792;10.358;2022-09-23T20:55:17;15.32;;;8.23;;
22849;SDS011;11591;44.792;10.358;2022-09-23T20:57:46;10.18;;;6.70;;
22849;SDS011;11591;44.792;10.358;2022-09-23T21:00:13;10.23;;;6.50;;
22849;SDS011;11591;44.792;10.358;2022-09-23T21:02:39;18.15;;;10.32;;
22849;SDS011;11591;44.792;10.358;2022-09-23T21:05:07;18.38;;;8.70;;
22849;SDS011;11591;44.792;10.358;2022-09-23T21:07:34;17.83;;;10.32;;
